Aérodrome :
LOGIN :

S'inscrire | Disclaimer

   EN    FR    IT 

 










Légende :    VFR   VFR Marginal   IFR   IFR Intensif   IFR Très Intensif
Visi : 
Plafond : 
>= 8 km
>= 3000ft
5 à 8 km
1000 à 3000 ft
1500m à 5 km
500 à 1000 ft
800 à 1500m
200 à 500 ft
< 800m
< 200 ft
Symboles :   Orages  Brouillard  Fortes neiges  Fortes précipitations  Vent > 20 kt
SIGMETs :   Divers  Orages  Givrage  Turbulence  Onde Orograph.  Cendres Volcan.







- Altitude de l'aérodrome : 285 ft
- Code IATA : GOZ


LBGO - Gorna Oryahovitsa

DERNIER METAR :
  • 181830Z AUTO 26004KT 3900 RA BR FEW004/// BKN008/// OVC021/// 03/03 Q1018

METARs EXPIRÉS :
  • 181800Z AUTO 27005KT 4800 RA SCT008/// OVC013/// 03/03 Q1019
  • 181730Z AUTO 27005KT 5000 RA FEW010/// BKN020/// OVC027/// 03/03 Q1019
  • 181700Z AUTO 27004KT 6000 RA SCT013/// BKN020/// OVC027/// 03/03 Q1020
  • 181630Z AUTO 28006KT 7000 -RA SCT024/// OVC034/// 03/03 Q1020 TEMPO 5000 RA
  • 181600Z AUTO 28007KT 9000 -RA FEW028/// BKN053/// OVC063/// 04/03 Q1021 TEMPO 5000 RA

TAF TAF LBGO
Valide du 18 à 18h jusqu'au 19 à 18h UTC


181700Z 1818/1918 VRB04KT 4000 RA SCT008 OVC015
PROB30
TEMPO 1818/1821 1500 SNRA SCT003 OVC008
TEMPO 1821/1901 2000 +RA SCT005 OVC010
BECMG 1901/1903 30012KT 6000 RA BKN010 OVC025
BECMG 1907/1909 9999 NSW BKN040
Pas de NOTAMs connus pour ce terrain.



MET'MAP, la Météo Aéronautique d'un coup d'oeil ! - Copyright ORBIFLY Décembre 2007 - Disclaimer

ORBIFLY MET'MAP TEAM :

Programmation & Développement : Alexandra Zaïnal
Conception & Développement : Baudouin d'Aumeries
Co-Programmation & Développement : Marc-Olivier Méhu
Soutien technique & logistique : Manuel Goepfert

Contact : metmap@orbifly.com




SOURCES & CREDITS :

   NOAA